sensor_id;sensor_type;location;lat;lon;timestamp;P1;durP1;ratioP1;P2;durP2;ratioP2
78968;SDS011;68369;51.050;17.018;2023-04-06T00:01:13;38.00;;;17.60;;
78968;SDS011;68369;51.050;17.018;2023-04-06T00:03:58;42.70;;;19.80;;
78968;SDS011;68369;51.050;17.018;2023-04-06T00:06:44;56.30;;;24.30;;
78968;SDS011;68369;51.050;17.018;2023-04-06T00:12:14;52.30;;;23.70;;
78968;SDS011;68369;51.050;17.018;2023-04-06T00:15:00;24.30;;;12.40;;
78968;SDS011;68369;51.050;17.018;2023-04-06T00:17:46;37.10;;;15.10;;
78968;SDS011;68369;51.050;17.018;2023-04-06T00:23:16;41.70;;;17.70;;
78968;SDS011;68369;51.050;17.018;2023-04-06T00:26:02;46.10;;;19.00;;
78968;SDS011;68369;51.050;17.018;2023-04-06T00:28:47;39.20;;;18.50;;
78968;SDS011;68369;51.050;17.018;2023-04-06T00:31:55;47.00;;;18.50;;
78968;SDS011;68369;51.050;17.018;2023-04-06T00:34:42;40.20;;;17.30;;
78968;SDS011;68369;51.050;17.018;2023-04-06T00:37:29;39.00;;;16.80;;
78968;SDS011;68369;51.050;17.018;2023-04-06T00:40:15;41.90;;;16.00;;
78968;SDS011;68369;51.050;17.018;2023-04-06T00:43:03;39.90;;;18.70;;
78968;SDS011;68369;51.050;17.018;2023-04-06T00:45:49;42.10;;;17.10;;
78968;SDS011;68369;51.050;17.018;2023-04-06T00:48:34;39.40;;;19.40;;
78968;SDS011;68369;51.050;17.018;2023-04-06T00:51:19;51.60;;;24.20;;
78968;SDS011;68369;51.050;17.018;2023-04-06T00:54:05;48.60;;;21.70;;
78968;SDS011;68369;51.050;17.018;2023-04-06T00:56:50;38.00;;;19.40;;
78968;SDS011;68369;51.050;17.018;2023-04-06T01:02:20;28.10;;;13.80;;
78968;SDS011;68369;51.050;17.018;2023-04-06T01:05:06;30.40;;;14.60;;
78968;SDS011;68369;51.050;17.018;2023-04-06T01:07:51;41.20;;;18.30;;
78968;SDS011;68369;51.050;17.018;2023-04-06T01:10:36;37.70;;;16.40;;
78968;SDS011;68369;51.050;17.018;2023-04-06T01:16:07;34.90;;;14.10;;
78968;SDS011;68369;51.050;17.018;2023-04-06T01:18:52;35.40;;;17.00;;
78968;SDS011;68369;51.050;17.018;2023-04-06T01:21:38;40.50;;;17.50;;
78968;SDS011;68369;51.050;17.018;2023-04-06T01:24:24;40.70;;;18.10;;
78968;SDS011;68369;51.050;17.018;2023-04-06T01:27:10;44.00;;;18.30;;
78968;SDS011;68369;51.050;17.018;2023-04-06T01:29:56;44.00;;;18.70;;
78968;SDS011;68369;51.050;17.018;2023-04-06T01:35:27;75.70;;;32.20;;
78968;SDS011;68369;51.050;17.018;2023-04-06T01:38:13;78.40;;;34.40;;
78968;SDS011;68369;51.050;17.018;2023-04-06T01:40:59;68.50;;;31.00;;
78968;SDS011;68369;51.050;17.018;2023-04-06T01:46:30;32.70;;;13.30;;
78968;SDS011;68369;51.050;17.018;2023-04-06T01:52:01;37.90;;;15.80;;
78968;SDS011;68369;51.050;17.018;2023-04-06T01:54:46;45.80;;;19.80;;
78968;SDS011;68369;51.050;17.018;2023-04-06T02:00:24;39.80;;;18.20;;
78968;SDS011;68369;51.050;17.018;2023-04-06T02:03:10;39.60;;;17.10;;
78968;SDS011;68369;51.050;17.018;2023-04-06T02:05:57;37.40;;;17.20;;
78968;SDS011;68369;51.050;17.018;2023-04-06T02:08:44;35.60;;;17.60;;
78968;SDS011;68369;51.050;17.018;2023-04-06T02:11:29;38.60;;;18.50;;
78968;SDS011;68369;51.050;17.018;2023-04-06T02:17:00;39.70;;;16.70;;
78968;SDS011;68369;51.050;17.018;2023-04-06T02:19:45;39.40;;;18.40;;
78968;SDS011;68369;51.050;17.018;2023-04-06T02:22:30;50.80;;;21.30;;
78968;SDS011;68369;51.050;17.018;2023-04-06T02:25:16;71.80;;;31.50;;
78968;SDS011;68369;51.050;17.018;2023-04-06T02:28:01;62.50;;;28.70;;
78968;SDS011;68369;51.050;17.018;2023-04-06T02:33:25;22.50;;;12.00;;
78968;SDS011;68369;51.050;17.018;2023-04-06T02:36:12;33.20;;;15.20;;
78968;SDS011;68369;51.050;17.018;2023-04-06T02:38:59;44.40;;;19.20;;
78968;SDS011;68369;51.050;17.018;2023-04-06T02:41:46;37.40;;;17.10;;
78968;SDS011;68369;51.050;17.018;2023-04-06T02:44:31;40.90;;;18.50;;
78968;SDS011;68369;51.050;17.018;2023-04-06T02:47:16;37.60;;;18.30;;
78968;SDS011;68369;51.050;17.018;2023-04-06T02:50:01;38.40;;;17.50;;
78968;SDS011;68369;51.050;17.018;2023-04-06T02:55:25;43.40;;;18.30;;
78968;SDS011;68369;51.050;17.018;2023-04-06T02:58:12;36.00;;;17.10;;
78968;SDS011;68369;51.050;17.018;2023-04-06T03:00:58;37.60;;;17.30;;
78968;SDS011;68369;51.050;17.018;2023-04-06T03:03:43;39.60;;;18.60;;
78968;SDS011;68369;51.050;17.018;2023-04-06T03:06:29;43.30;;;21.20;;
78968;SDS011;68369;51.050;17.018;2023-04-06T03:09:32;70.50;;;31.00;;
78968;SDS011;68369;51.050;17.018;2023-04-06T03:12:21;70.50;;;31.80;;
78968;SDS011;68369;51.050;17.018;2023-04-06T03:15:11;58.20;;;28.30;;
78968;SDS011;68369;51.050;17.018;2023-04-06T03:17:57;26.20;;;14.20;;
78968;SDS011;68369;51.050;17.018;2023-04-06T03:20:45;40.50;;;16.30;;
78968;SDS011;68369;51.050;17.018;2023-04-06T03:23:31;47.80;;;19.00;;
78968;SDS011;68369;51.050;17.018;2023-04-06T03:26:16;43.50;;;20.30;;
78968;SDS011;68369;51.050;17.018;2023-04-06T03:29:02;49.90;;;21.40;;
78968;SDS011;68369;51.050;17.018;2023-04-06T03:31:47;53.20;;;22.70;;
78968;SDS011;68369;51.050;17.018;2023-04-06T03:34:33;55.30;;;21.90;;
78968;SDS011;68369;51.050;17.018;2023-04-06T03:37:18;48.60;;;20.70;;
78968;SDS011;68369;51.050;17.018;2023-04-06T03:40:03;46.90;;;20.00;;
78968;SDS011;68369;51.050;17.018;2023-04-06T03:42:49;43.30;;;19.40;;
78968;SDS011;68369;51.050;17.018;2023-04-06T03:48:19;45.80;;;18.10;;
78968;SDS011;68369;51.050;17.018;2023-04-06T03:51:07;46.60;;;20.90;;
78968;SDS011;68369;51.050;17.018;2023-04-06T03:53:52;53.40;;;23.00;;
78968;SDS011;68369;51.050;17.018;2023-04-06T03:56:37;60.10;;;26.30;;
78968;SDS011;68369;51.050;17.018;2023-04-06T03:59:22;84.30;;;35.80;;
78968;SDS011;68369;51.050;17.018;2023-04-06T04:02:07;88.90;;;35.50;;
78968;SDS011;68369;51.050;17.018;2023-04-06T04:04:52;68.20;;;30.20;;
78968;SDS011;68369;51.050;17.018;2023-04-06T04:07:37;32.00;;;14.90;;
78968;SDS011;68369;51.050;17.018;2023-04-06T04:13:08;36.70;;;17.60;;
78968;SDS011;68369;51.050;17.018;2023-04-06T04:15:54;44.70;;;19.90;;
78968;SDS011;68369;51.050;17.018;2023-04-06T04:18:39;47.80;;;20.30;;
78968;SDS011;68369;51.050;17.018;2023-04-06T04:24:10;44.80;;;18.00;;
78968;SDS011;68369;51.050;17.018;2023-04-06T04:26:56;40.00;;;18.60;;
78968;SDS011;68369;51.050;17.018;2023-04-06T04:29:42;49.40;;;20.30;;
78968;SDS011;68369;51.050;17.018;2023-04-06T04:32:28;46.10;;;18.90;;
78968;SDS011;68369;51.050;17.018;2023-04-06T04:35:13;52.40;;;21.10;;
78968;SDS011;68369;51.050;17.018;2023-04-06T04:37:59;59.40;;;22.10;;
78968;SDS011;68369;51.050;17.018;2023-04-06T04:40:44;51.60;;;21.80;;
78968;SDS011;68369;51.050;17.018;2023-04-06T04:46:16;89.00;;;37.40;;
78968;SDS011;68369;51.050;17.018;2023-04-06T04:49:02;97.30;;;41.40;;
78968;SDS011;68369;51.050;17.018;2023-04-06T04:51:47;90.80;;;35.60;;
78968;SDS011;68369;51.050;17.018;2023-04-06T04:57:28;39.90;;;17.30;;
78968;SDS011;68369;51.050;17.018;2023-04-06T05:00:13;53.10;;;19.80;;
78968;SDS011;68369;51.050;17.018;2023-04-06T05:02:59;67.00;;;23.90;;
78968;SDS011;68369;51.050;17.018;2023-04-06T05:05:44;66.00;;;24.50;;
78968;SDS011;68369;51.050;17.018;2023-04-06T05:08:29;61.00;;;23.60;;
78968;SDS011;68369;51.050;17.018;2023-04-06T05:11:14;59.60;;;22.90;;
78968;SDS011;68369;51.050;17.018;2023-04-06T05:14:00;67.40;;;23.00;;
78968;SDS011;68369;51.050;17.018;2023-04-06T05:16:46;46.50;;;21.60;;
78968;SDS011;68369;51.050;17.018;2023-04-06T05:19:32;50.60;;;22.60;;
78968;SDS011;68369;51.050;17.018;2023-04-06T05:22:17;58.00;;;25.40;;
78968;SDS011;68369;51.050;17.018;2023-04-06T05:25:02;67.90;;;29.90;;
78968;SDS011;68369;51.050;17.018;2023-04-06T05:27:48;67.30;;;27.40;;
78968;SDS011;68369;51.050;17.018;2023-04-06T05:30:34;62.10;;;25.00;;
78968;SDS011;68369;51.050;17.018;2023-04-06T05:33:20;28.20;;;13.80;;
78968;SDS011;68369;51.050;17.018;2023-04-06T05:36:05;42.80;;;18.30;;
78968;SDS011;68369;51.050;17.018;2023-04-06T05:38:51;55.40;;;20.40;;
78968;SDS011;68369;51.050;17.018;2023-04-06T05:41:37;54.70;;;23.30;;
78968;SDS011;68369;51.050;17.018;2023-04-06T05:47:07;54.00;;;21.30;;
78968;SDS011;68369;51.050;17.018;2023-04-06T05:49:53;52.50;;;20.70;;
78968;SDS011;68369;51.050;17.018;2023-04-06T05:52:39;47.40;;;21.40;;
78968;SDS011;68369;51.050;17.018;2023-04-06T05:55:27;50.10;;;21.10;;
78968;SDS011;68369;51.050;17.018;2023-04-06T05:58:12;47.40;;;21.80;;
78968;SDS011;68369;51.050;17.018;2023-04-06T06:00:58;49.00;;;22.50;;
78968;SDS011;68369;51.050;17.018;2023-04-06T06:03:44;49.10;;;24.40;;
78968;SDS011;68369;51.050;17.018;2023-04-06T06:06:29;41.80;;;22.90;;
78968;SDS011;68369;51.050;17.018;2023-04-06T06:09:17;43.10;;;21.30;;
78968;SDS011;68369;51.050;17.018;2023-04-06T06:15:14;36.60;;;19.40;;
78968;SDS011;68369;51.050;17.018;2023-04-06T06:18:00;44.90;;;22.40;;
78968;SDS011;68369;51.050;17.018;2023-04-06T06:20:46;44.10;;;21.70;;
78968;SDS011;68369;51.050;17.018;2023-04-06T06:23:32;39.80;;;21.00;;
78968;SDS011;68369;51.050;17.018;2023-04-06T06:26:17;42.80;;;21.40;;
78968;SDS011;68369;51.050;17.018;2023-04-06T06:29:02;39.50;;;21.20;;
78968;SDS011;68369;51.050;17.018;2023-04-06T06:31:50;41.90;;;20.20;;
78968;SDS011;68369;51.050;17.018;2023-04-06T06:34:35;41.00;;;21.20;;
78968;SDS011;68369;51.050;17.018;2023-04-06T06:37:20;41.10;;;22.00;;
78968;SDS011;68369;51.050;17.018;2023-04-06T06:40:05;39.60;;;19.10;;
78968;SDS011;68369;51.050;17.018;2023-04-06T06:42:51;48.20;;;25.10;;
78968;SDS011;68369;51.050;17.018;2023-04-06T06:48:29;27.90;;;16.50;;
78968;SDS011;68369;51.050;17.018;2023-04-06T06:51:15;36.20;;;20.30;;
78968;SDS011;68369;51.050;17.018;2023-04-06T06:54:00;43.60;;;21.60;;
78968;SDS011;68369;51.050;17.018;2023-04-06T06:56:45;53.60;;;22.70;;
78968;SDS011;68369;51.050;17.018;2023-04-06T06:59:31;40.00;;;22.20;;
78968;SDS011;68369;51.050;17.018;2023-04-06T07:02:16;46.10;;;21.80;;
78968;SDS011;68369;51.050;17.018;2023-04-06T07:05:01;39.60;;;20.90;;
78968;SDS011;68369;51.050;17.018;2023-04-06T07:08:00;41.50;;;21.50;;
78968;SDS011;68369;51.050;17.018;2023-04-06T07:10:46;46.00;;;24.20;;
78968;SDS011;68369;51.050;17.018;2023-04-06T07:16:16;49.10;;;23.00;;
78968;SDS011;68369;51.050;17.018;2023-04-06T07:19:01;50.10;;;24.90;;
78968;SDS011;68369;51.050;17.018;2023-04-06T07:21:47;36.60;;;18.80;;
78968;SDS011;68369;51.050;17.018;2023-04-06T07:27:27;41.80;;;21.60;;
78968;SDS011;68369;51.050;17.018;2023-04-06T07:30:13;44.80;;;22.90;;
78968;SDS011;68369;51.050;17.018;2023-04-06T07:33:00;44.30;;;24.50;;
78968;SDS011;68369;51.050;17.018;2023-04-06T07:35:47;41.70;;;23.20;;
78968;SDS011;68369;51.050;17.018;2023-04-06T07:38:33;48.70;;;25.10;;
78968;SDS011;68369;51.050;17.018;2023-04-06T07:41:18;43.20;;;23.30;;
78968;SDS011;68369;51.050;17.018;2023-04-06T07:44:03;42.10;;;22.70;;
78968;SDS011;68369;51.050;17.018;2023-04-06T07:49:57;40.30;;;22.50;;
78968;SDS011;68369;51.050;17.018;2023-04-06T07:52:43;36.10;;;21.10;;
78968;SDS011;68369;51.050;17.018;2023-04-06T07:55:28;30.50;;;18.80;;
78968;SDS011;68369;51.050;17.018;2023-04-06T07:58:13;32.90;;;19.60;;
78968;SDS011;68369;51.050;17.018;2023-04-06T08:03:45;29.40;;;17.90;;
78968;SDS011;68369;51.050;17.018;2023-04-06T08:06:32;25.40;;;15.00;;
78968;SDS011;68369;51.050;17.018;2023-04-06T08:09:18;23.50;;;14.60;;
78968;SDS011;68369;51.050;17.018;2023-04-06T08:12:05;23.50;;;14.10;;
78968;SDS011;68369;51.050;17.018;2023-04-06T08:14:51;22.20;;;13.20;;
78968;SDS011;68369;51.050;17.018;2023-04-06T08:17:37;23.60;;;14.20;;
78968;SDS011;68369;51.050;17.018;2023-04-06T08:20:22;21.90;;;12.20;;
78968;SDS011;68369;51.050;17.018;2023-04-06T08:23:08;16.70;;;9.20;;
78968;SDS011;68369;51.050;17.018;2023-04-06T08:25:54;14.20;;;8.50;;
78968;SDS011;68369;51.050;17.018;2023-04-06T08:28:41;16.40;;;9.10;;
78968;SDS011;68369;51.050;17.018;2023-04-06T08:31:27;16.10;;;9.20;;
78968;SDS011;68369;51.050;17.018;2023-04-06T08:34:13;20.00;;;9.50;;
78968;SDS011;68369;51.050;17.018;2023-04-06T08:36:59;18.40;;;9.10;;
78968;SDS011;68369;51.050;17.018;2023-04-06T08:39:45;15.80;;;9.30;;
78968;SDS011;68369;51.050;17.018;2023-04-06T08:42:33;17.10;;;8.60;;
78968;SDS011;68369;51.050;17.018;2023-04-06T08:45:24;16.60;;;8.00;;
78968;SDS011;68369;51.050;17.018;2023-04-06T08:48:10;15.90;;;8.70;;
78968;SDS011;68369;51.050;17.018;2023-04-06T08:50:57;15.80;;;8.40;;
78968;SDS011;68369;51.050;17.018;2023-04-06T08:53:42;13.30;;;8.10;;
78968;SDS011;68369;51.050;17.018;2023-04-06T08:56:28;15.00;;;8.50;;
78968;SDS011;68369;51.050;17.018;2023-04-06T08:59:14;18.90;;;8.70;;
78968;SDS011;68369;51.050;17.018;2023-04-06T09:02:00;13.80;;;7.90;;
78968;SDS011;68369;51.050;17.018;2023-04-06T09:04:49;15.80;;;7.70;;
78968;SDS011;68369;51.050;17.018;2023-04-06T09:07:38;15.10;;;8.40;;
78968;SDS011;68369;51.050;17.018;2023-04-06T09:10:23;17.90;;;8.90;;
78968;SDS011;68369;51.050;17.018;2023-04-06T09:13:10;13.00;;;7.90;;
78968;SDS011;68369;51.050;17.018;2023-04-06T09:16:02;15.40;;;7.90;;
78968;SDS011;68369;51.050;17.018;2023-04-06T09:18:49;11.90;;;6.70;;
78968;SDS011;68369;51.050;17.018;2023-04-06T09:21:35;10.30;;;7.00;;
78968;SDS011;68369;51.050;17.018;2023-04-06T09:27:14;13.10;;;8.20;;
78968;SDS011;68369;51.050;17.018;2023-04-06T09:30:02;10.00;;;6.40;;
78968;SDS011;68369;51.050;17.018;2023-04-06T09:32:53;12.50;;;7.10;;
78968;SDS011;68369;51.050;17.018;2023-04-06T09:35:40;11.90;;;7.00;;
78968;SDS011;68369;51.050;17.018;2023-04-06T09:38:36;11.90;;;6.90;;
78968;SDS011;68369;51.050;17.018;2023-04-06T09:41:25;10.40;;;6.10;;
78968;SDS011;68369;51.050;17.018;2023-04-06T09:47:27;10.90;;;6.30;;
78968;SDS011;68369;51.050;17.018;2023-04-06T09:50:18;11.90;;;6.00;;
78968;SDS011;68369;51.050;17.018;2023-04-06T09:53:04;11.10;;;6.70;;
78968;SDS011;68369;51.050;17.018;2023-04-06T09:55:50;13.00;;;6.90;;
78968;SDS011;68369;51.050;17.018;2023-04-06T10:04:50;7.90;;;4.80;;
78968;SDS011;68369;51.050;17.018;2023-04-06T10:07:42;8.90;;;4.70;;
78968;SDS011;68369;51.050;17.018;2023-04-06T10:10:44;11.70;;;5.10;;
78968;SDS011;68369;51.050;17.018;2023-04-06T10:16:22;10.00;;;4.80;;
78968;SDS011;68369;51.050;17.018;2023-04-06T10:22:48;9.20;;;5.30;;
78968;SDS011;68369;51.050;17.018;2023-04-06T10:28:49;7.00;;;4.50;;
78968;SDS011;68369;51.050;17.018;2023-04-06T10:31:39;7.90;;;4.50;;
78968;SDS011;68369;51.050;17.018;2023-04-06T10:34:34;7.00;;;4.70;;
78968;SDS011;68369;51.050;17.018;2023-04-06T10:37:23;9.60;;;5.00;;
78968;SDS011;68369;51.050;17.018;2023-04-06T10:40:18;8.40;;;4.50;;
78968;SDS011;68369;51.050;17.018;2023-04-06T10:43:07;8.10;;;5.10;;
78968;SDS011;68369;51.050;17.018;2023-04-06T10:45:57;9.20;;;5.30;;
78968;SDS011;68369;51.050;17.018;2023-04-06T10:48:45;6.20;;;5.10;;
78968;SDS011;68369;51.050;17.018;2023-04-06T10:51:37;7.30;;;4.80;;
78968;SDS011;68369;51.050;17.018;2023-04-06T10:54:24;9.20;;;5.70;;
78968;SDS011;68369;51.050;17.018;2023-04-06T10:57:10;8.10;;;5.20;;
78968;SDS011;68369;51.050;17.018;2023-04-06T11:02:58;9.40;;;4.70;;
78968;SDS011;68369;51.050;17.018;2023-04-06T11:08:39;7.90;;;4.70;;
78968;SDS011;68369;51.050;17.018;2023-04-06T11:11:26;10.30;;;5.00;;
78968;SDS011;68369;51.050;17.018;2023-04-06T11:14:14;9.80;;;4.10;;
78968;SDS011;68369;51.050;17.018;2023-04-06T11:17:00;6.80;;;4.40;;
78968;SDS011;68369;51.050;17.018;2023-04-06T11:19:47;7.70;;;5.10;;
78968;SDS011;68369;51.050;17.018;2023-04-06T11:22:32;9.00;;;4.30;;
78968;SDS011;68369;51.050;17.018;2023-04-06T11:25:18;7.30;;;3.60;;
78968;SDS011;68369;51.050;17.018;2023-04-06T11:28:03;8.20;;;3.70;;
78968;SDS011;68369;51.050;17.018;2023-04-06T11:30:48;8.30;;;4.20;;
78968;SDS011;68369;51.050;17.018;2023-04-06T11:33:43;7.30;;;4.20;;
78968;SDS011;68369;51.050;17.018;2023-04-06T11:36:32;7.20;;;4.20;;
78968;SDS011;68369;51.050;17.018;2023-04-06T11:46:09;8.30;;;5.00;;
78968;SDS011;68369;51.050;17.018;2023-04-06T11:51:39;7.40;;;4.20;;
78968;SDS011;68369;51.050;17.018;2023-04-06T11:54:36;6.90;;;4.30;;
78968;SDS011;68369;51.050;17.018;2023-04-06T11:57:24;7.30;;;4.70;;
78968;SDS011;68369;51.050;17.018;2023-04-06T12:00:11;7.40;;;4.50;;
78968;SDS011;68369;51.050;17.018;2023-04-06T12:03:02;9.30;;;4.90;;
78968;SDS011;68369;51.050;17.018;2023-04-06T12:05:47;7.30;;;4.20;;
78968;SDS011;68369;51.050;17.018;2023-04-06T12:08:34;7.10;;;4.50;;
78968;SDS011;68369;51.050;17.018;2023-04-06T12:11:38;7.00;;;4.50;;
78968;SDS011;68369;51.050;17.018;2023-04-06T12:14:24;7.70;;;4.80;;
78968;SDS011;68369;51.050;17.018;2023-04-06T12:19:52;7.30;;;4.40;;
78968;SDS011;68369;51.050;17.018;2023-04-06T12:22:39;7.00;;;4.80;;
78968;SDS011;68369;51.050;17.018;2023-04-06T12:28:18;9.00;;;5.20;;
78968;SDS011;68369;51.050;17.018;2023-04-06T12:40:14;7.00;;;4.90;;
78968;SDS011;68369;51.050;17.018;2023-04-06T12:43:02;8.30;;;4.60;;
78968;SDS011;68369;51.050;17.018;2023-04-06T12:45:47;8.10;;;5.10;;
78968;SDS011;68369;51.050;17.018;2023-04-06T12:48:32;9.50;;;5.30;;
78968;SDS011;68369;51.050;17.018;2023-04-06T12:51:17;9.20;;;5.30;;
78968;SDS011;68369;51.050;17.018;2023-04-06T12:54:02;8.50;;;5.20;;
78968;SDS011;68369;51.050;17.018;2023-04-06T12:56:47;9.90;;;5.30;;
78968;SDS011;68369;51.050;17.018;2023-04-06T13:02:48;7.00;;;4.60;;
78968;SDS011;68369;51.050;17.018;2023-04-06T13:05:35;14.30;;;6.80;;
78968;SDS011;68369;51.050;17.018;2023-04-06T13:08:22;8.20;;;5.20;;
78968;SDS011;68369;51.050;17.018;2023-04-06T13:11:07;8.50;;;4.90;;
78968;SDS011;68369;51.050;17.018;2023-04-06T13:13:53;8.30;;;4.20;;
78968;SDS011;68369;51.050;17.018;2023-04-06T13:16:39;6.70;;;4.80;;
78968;SDS011;68369;51.050;17.018;2023-04-06T13:19:24;7.30;;;4.60;;
78968;SDS011;68369;51.050;17.018;2023-04-06T13:25:44;7.90;;;4.70;;
78968;SDS011;68369;51.050;17.018;2023-04-06T13:28:29;8.00;;;4.80;;
78968;SDS011;68369;51.050;17.018;2023-04-06T13:31:15;7.10;;;4.50;;
78968;SDS011;68369;51.050;17.018;2023-04-06T13:34:01;9.10;;;4.10;;
78968;SDS011;68369;51.050;17.018;2023-04-06T13:36:47;5.30;;;3.70;;
78968;SDS011;68369;51.050;17.018;2023-04-06T13:39:32;5.90;;;3.80;;
78968;SDS011;68369;51.050;17.018;2023-04-06T13:42:18;7.00;;;4.20;;
78968;SDS011;68369;51.050;17.018;2023-04-06T13:45:04;5.40;;;3.90;;
78968;SDS011;68369;51.050;17.018;2023-04-06T13:47:50;6.00;;;4.50;;
78968;SDS011;68369;51.050;17.018;2023-04-06T13:50:35;5.60;;;4.30;;
78968;SDS011;68369;51.050;17.018;2023-04-06T13:53:20;6.60;;;4.10;;
78968;SDS011;68369;51.050;17.018;2023-04-06T13:56:06;5.00;;;3.90;;
78968;SDS011;68369;51.050;17.018;2023-04-06T13:58:56;5.30;;;3.60;;
78968;SDS011;68369;51.050;17.018;2023-04-06T14:01:41;4.70;;;3.30;;
78968;SDS011;68369;51.050;17.018;2023-04-06T14:04:26;5.60;;;4.30;;
78968;SDS011;68369;51.050;17.018;2023-04-06T14:10:13;7.50;;;4.50;;
78968;SDS011;68369;51.050;17.018;2023-04-06T14:15:53;5.50;;;4.30;;
78968;SDS011;68369;51.050;17.018;2023-04-06T14:18:42;5.70;;;4.10;;
78968;SDS011;68369;51.050;17.018;2023-04-06T14:21:27;6.50;;;4.10;;
78968;SDS011;68369;51.050;17.018;2023-04-06T14:24:14;5.00;;;4.10;;
78968;SDS011;68369;51.050;17.018;2023-04-06T14:33:02;6.30;;;4.80;;
78968;SDS011;68369;51.050;17.018;2023-04-06T14:38:28;16.70;;;12.40;;
78968;SDS011;68369;51.050;17.018;2023-04-06T14:41:20;7.40;;;5.30;;
78968;SDS011;68369;51.050;17.018;2023-04-06T14:44:07;6.10;;;4.80;;
78968;SDS011;68369;51.050;17.018;2023-04-06T14:46:56;8.40;;;5.40;;
78968;SDS011;68369;51.050;17.018;2023-04-06T14:49:41;9.70;;;5.80;;
78968;SDS011;68369;51.050;17.018;2023-04-06T14:52:26;7.50;;;4.70;;
78968;SDS011;68369;51.050;17.018;2023-04-06T14:55:13;8.40;;;5.40;;
78968;SDS011;68369;51.050;17.018;2023-04-06T14:57:58;7.90;;;4.90;;
78968;SDS011;68369;51.050;17.018;2023-04-06T15:00:44;8.90;;;5.00;;
78968;SDS011;68369;51.050;17.018;2023-04-06T15:06:12;7.90;;;4.80;;
78968;SDS011;68369;51.050;17.018;2023-04-06T15:09:00;6.40;;;4.50;;
78968;SDS011;68369;51.050;17.018;2023-04-06T15:11:45;7.80;;;4.40;;
78968;SDS011;68369;51.050;17.018;2023-04-06T15:14:31;7.70;;;5.40;;
78968;SDS011;68369;51.050;17.018;2023-04-06T15:17:17;7.60;;;4.70;;
78968;SDS011;68369;51.050;17.018;2023-04-06T15:20:03;7.80;;;5.40;;
78968;SDS011;68369;51.050;17.018;2023-04-06T15:22:49;8.80;;;5.20;;
78968;SDS011;68369;51.050;17.018;2023-04-06T15:25:34;7.70;;;4.60;;
78968;SDS011;68369;51.050;17.018;2023-04-06T15:28:20;7.30;;;4.50;;
78968;SDS011;68369;51.050;17.018;2023-04-06T15:31:12;7.80;;;5.20;;
78968;SDS011;68369;51.050;17.018;2023-04-06T15:34:20;8.50;;;5.00;;
78968;SDS011;68369;51.050;17.018;2023-04-06T15:37:05;7.50;;;4.60;;
78968;SDS011;68369;51.050;17.018;2023-04-06T15:45:59;7.10;;;4.40;;
78968;SDS011;68369;51.050;17.018;2023-04-06T15:48:48;8.40;;;5.10;;
78968;SDS011;68369;51.050;17.018;2023-04-06T15:51:35;9.40;;;5.40;;
78968;SDS011;68369;51.050;17.018;2023-04-06T15:54:42;7.90;;;4.80;;
78968;SDS011;68369;51.050;17.018;2023-04-06T15:57:27;8.10;;;5.40;;
78968;SDS011;68369;51.050;17.018;2023-04-06T16:03:05;8.50;;;5.00;;
78968;SDS011;68369;51.050;17.018;2023-04-06T16:05:52;6.40;;;4.00;;
78968;SDS011;68369;51.050;17.018;2023-04-06T16:08:53;9.00;;;4.50;;
78968;SDS011;68369;51.050;17.018;2023-04-06T16:11:38;6.10;;;4.90;;
78968;SDS011;68369;51.050;17.018;2023-04-06T16:17:32;6.30;;;4.10;;
78968;SDS011;68369;51.050;17.018;2023-04-06T16:20:17;9.00;;;4.30;;
78968;SDS011;68369;51.050;17.018;2023-04-06T16:23:02;8.30;;;4.20;;
78968;SDS011;68369;51.050;17.018;2023-04-06T16:25:48;7.60;;;4.50;;
78968;SDS011;68369;51.050;17.018;2023-04-06T16:28:34;7.30;;;4.80;;
78968;SDS011;68369;51.050;17.018;2023-04-06T16:31:20;7.00;;;4.30;;
78968;SDS011;68369;51.050;17.018;2023-04-06T16:34:07;7.50;;;4.60;;
78968;SDS011;68369;51.050;17.018;2023-04-06T16:36:52;6.70;;;4.40;;
78968;SDS011;68369;51.050;17.018;2023-04-06T16:42:30;6.50;;;4.40;;
78968;SDS011;68369;51.050;17.018;2023-04-06T16:45:15;7.30;;;4.70;;
78968;SDS011;68369;51.050;17.018;2023-04-06T16:48:01;7.10;;;4.70;;
78968;SDS011;68369;51.050;17.018;2023-04-06T16:53:38;8.50;;;5.10;;
78968;SDS011;68369;51.050;17.018;2023-04-06T16:56:24;8.10;;;4.80;;
78968;SDS011;68369;51.050;17.018;2023-04-06T17:02:45;7.90;;;4.30;;
78968;SDS011;68369;51.050;17.018;2023-04-06T17:05:31;10.50;;;4.60;;
78968;SDS011;68369;51.050;17.018;2023-04-06T17:08:19;9.20;;;5.40;;
78968;SDS011;68369;51.050;17.018;2023-04-06T17:11:04;7.80;;;4.80;;
78968;SDS011;68369;51.050;17.018;2023-04-06T17:13:49;8.90;;;5.00;;
78968;SDS011;68369;51.050;17.018;2023-04-06T17:16:34;8.50;;;4.90;;
78968;SDS011;68369;51.050;17.018;2023-04-06T17:19:20;7.50;;;4.50;;
78968;SDS011;68369;51.050;17.018;2023-04-06T17:22:05;9.70;;;5.00;;
78968;SDS011;68369;51.050;17.018;2023-04-06T17:27:51;12.20;;;7.30;;
78968;SDS011;68369;51.050;17.018;2023-04-06T17:30:38;9.20;;;5.30;;
78968;SDS011;68369;51.050;17.018;2023-04-06T17:33:24;8.30;;;4.90;;
78968;SDS011;68369;51.050;17.018;2023-04-06T17:36:11;9.90;;;5.50;;
78968;SDS011;68369;51.050;17.018;2023-04-06T17:38:56;9.30;;;5.40;;
78968;SDS011;68369;51.050;17.018;2023-04-06T17:44:59;9.30;;;5.70;;
78968;SDS011;68369;51.050;17.018;2023-04-06T17:53:37;8.10;;;5.90;;
78968;SDS011;68369;51.050;17.018;2023-04-06T17:56:24;10.10;;;5.60;;
78968;SDS011;68369;51.050;17.018;2023-04-06T17:59:10;9.00;;;5.40;;
78968;SDS011;68369;51.050;17.018;2023-04-06T18:01:55;9.70;;;5.90;;
78968;SDS011;68369;51.050;17.018;2023-04-06T18:04:41;12.60;;;6.20;;
78968;SDS011;68369;51.050;17.018;2023-04-06T18:07:28;12.30;;;5.70;;
78968;SDS011;68369;51.050;17.018;2023-04-06T18:13:21;13.10;;;6.40;;
78968;SDS011;68369;51.050;17.018;2023-04-06T18:19:07;10.40;;;6.10;;
78968;SDS011;68369;51.050;17.018;2023-04-06T18:21:52;11.30;;;6.20;;
78968;SDS011;68369;51.050;17.018;2023-04-06T18:37:38;10.00;;;5.70;;
78968;SDS011;68369;51.050;17.018;2023-04-06T18:59:58;10.20;;;5.30;;
78968;SDS011;68369;51.050;17.018;2023-04-06T19:15:03;11.40;;;5.20;;
78968;SDS011;68369;51.050;17.018;2023-04-06T19:24:26;8.40;;;5.30;;
78968;SDS011;68369;51.050;17.018;2023-04-06T19:43:56;8.70;;;5.90;;
78968;SDS011;68369;51.050;17.018;2023-04-06T19:46:42;11.10;;;6.20;;
78968;SDS011;68369;51.050;17.018;2023-04-06T19:52:44;11.20;;;6.30;;
78968;SDS011;68369;51.050;17.018;2023-04-06T19:55:30;11.20;;;6.40;;
78968;SDS011;68369;51.050;17.018;2023-04-06T19:58:15;12.50;;;7.20;;
78968;SDS011;68369;51.050;17.018;2023-04-06T20:01:01;11.80;;;6.30;;
78968;SDS011;68369;51.050;17.018;2023-04-06T20:03:46;10.80;;;6.10;;
78968;SDS011;68369;51.050;17.018;2023-04-06T20:09:24;14.60;;;6.90;;
78968;SDS011;68369;51.050;17.018;2023-04-06T20:12:10;11.90;;;6.80;;
78968;SDS011;68369;51.050;17.018;2023-04-06T20:17:40;9.30;;;5.80;;
78968;SDS011;68369;51.050;17.018;2023-04-06T20:39:14;15.30;;;8.20;;
78968;SDS011;68369;51.050;17.018;2023-04-06T20:42:00;17.00;;;9.00;;
78968;SDS011;68369;51.050;17.018;2023-04-06T20:44:46;17.20;;;8.10;;
78968;SDS011;68369;51.050;17.018;2023-04-06T21:02:57;16.00;;;8.40;;
78968;SDS011;68369;51.050;17.018;2023-04-06T21:05:50;13.70;;;8.70;;